Terminal Aerodrome Forecast
Issued by NWS

Home | Current Version | Previous Version | Text Only | Print | Product List | Glossary On
Versions: 1 2 3 4 5 6 7 8 9 10 11 12 13 14 15
000
FTUS45 KRIW 282330
TAFCPR
TAF
KCPR 282330Z 2900/2924 07010G15KT P6SM VCSH FEW080 SCT110
     FM290200 08010KT P6SM VCSH SCT080 BKN140
     FM290700 VRB06KT P6SM FEW120
     FM292100 VRB12G18KT P6SM VCTS SCT060CB BKN130=

USA.gov is the U.S. government's official web portal to all federal, state and local government web resources and services.